createdAt,value
2019-03-16T00:02:08.801Z,9.38
2019-03-16T00:04:29.371Z,8.25
2019-03-16T00:06:50.071Z,10.90
2019-03-16T00:09:10.811Z,8.78
2019-03-16T00:11:31.541Z,10.13
2019-03-16T00:13:52.094Z,13.05
2019-03-16T00:16:12.679Z,8.55
2019-03-16T00:18:33.405Z,10.58
2019-03-16T00:20:54.447Z,11.12
2019-03-16T00:23:15.142Z,17.35
2019-03-16T00:25:35.695Z,14.25
2019-03-16T00:27:56.198Z,11.43
2019-03-16T00:30:16.926Z,11.57
2019-03-16T00:32:37.445Z,14.15
2019-03-16T00:34:58.031Z,14.73
2019-03-16T00:37:18.660Z,12.73
2019-03-16T00:39:39.201Z,10.98
2019-03-16T00:41:59.658Z,10.20
2019-03-16T00:44:21.149Z,11.85
2019-03-16T00:46:41.705Z,11.38
2019-03-16T00:49:02.356Z,11.43
2019-03-16T00:51:22.853Z,9.55
2019-03-16T00:53:43.414Z,13.45
2019-03-16T00:56:04.010Z,10.50
2019-03-16T00:58:24.469Z,11.75
2019-03-16T01:00:45.085Z,15.30
2019-03-16T01:03:05.664Z,12.35
2019-03-16T01:05:26.279Z,14.70
2019-03-16T01:07:47.895Z,11.10
2019-03-16T01:10:09.967Z,11.35
2019-03-16T01:12:30.604Z,11.38
2019-03-16T01:14:52.676Z,12.05
2019-03-16T01:17:13.233Z,12.50
2019-03-16T01:19:33.799Z,12.07
2019-03-16T01:21:54.353Z,11.88
2019-03-16T01:24:15.795Z,11.57
2019-03-16T01:26:36.303Z,12.20
2019-03-16T01:28:56.997Z,14.28
2019-03-16T01:31:17.496Z,12.90
2019-03-16T01:33:38.015Z,12.10
2019-03-16T01:35:58.536Z,14.25
2019-03-16T01:38:19.153Z,14.05
2019-03-16T01:40:48.192Z,14.00
2019-03-16T01:43:09.143Z,16.93
2019-03-16T01:45:29.842Z,17.95
2019-03-16T01:47:50.294Z,16.02
2019-03-16T01:50:11.982Z,17.20
2019-03-16T01:52:32.551Z,16.50
2019-03-16T01:54:53.233Z,17.50
2019-03-16T01:57:13.661Z,14.28
2019-03-16T01:59:34.120Z,20.50
2019-03-16T02:01:54.715Z,16.10
2019-03-16T02:04:15.287Z,11.83
2019-03-16T02:06:35.813Z,12.73
2019-03-16T02:08:56.371Z,17.00
2019-03-16T02:11:18.451Z,9.43
2019-03-16T02:13:38.967Z,12.23
2019-03-16T02:16:10.372Z,12.82
2019-03-16T02:18:21.364Z,10.77
2019-03-16T02:20:41.906Z,11.43
2019-03-16T02:23:02.516Z,11.45
2019-03-16T02:25:23.023Z,13.90
2019-03-16T02:27:44.575Z,12.23
2019-03-16T02:30:10.974Z,13.85
2019-03-16T02:32:31.579Z,10.82
2019-03-16T02:34:52.177Z,13.93
2019-03-16T02:37:12.639Z,12.47
2019-03-16T02:39:33.219Z,10.85
2019-03-16T02:41:53.693Z,15.10
2019-03-16T02:44:14.220Z,14.07
2019-03-16T02:46:34.753Z,10.30
2019-03-16T02:48:55.238Z,15.80
2019-03-16T02:51:15.757Z,11.90
2019-03-16T02:53:36.254Z,11.28
2019-03-16T02:55:56.735Z,13.35
2019-03-16T02:58:17.242Z,10.72
2019-03-16T03:00:37.783Z,10.68
2019-03-16T03:02:59.274Z,9.20
2019-03-16T03:05:19.891Z,11.83
2019-03-16T03:07:40.576Z,10.23
2019-03-16T03:10:01.147Z,14.90
2019-03-16T03:12:21.703Z,9.15
2019-03-16T03:14:42.327Z,10.78
2019-03-16T03:17:02.818Z,9.35
2019-03-16T03:19:25.371Z,12.07
2019-03-16T03:21:45.034Z,12.90
2019-03-16T03:24:05.647Z,12.35
2019-03-16T03:26:26.159Z,12.20
2019-03-16T03:28:46.853Z,18.37
2019-03-16T03:31:07.803Z,10.20
2019-03-16T03:33:56.274Z,11.20
2019-03-16T03:35:49.958Z,10.80
2019-03-16T03:38:10.491Z,10.08
2019-03-16T03:40:31.008Z,11.25
2019-03-16T03:42:51.618Z,11.43
2019-03-16T03:45:13.298Z,12.35
2019-03-16T03:47:33.833Z,11.22
2019-03-16T03:49:54.377Z,20.05
2019-03-16T03:52:14.874Z,9.08
2019-03-16T03:54:35.668Z,8.85
2019-03-16T03:56:56.293Z,9.65
2019-03-16T03:59:16.950Z,11.60
2019-03-16T04:01:37.507Z,10.35
2019-03-16T04:04:14.345Z,9.60
2019-03-16T04:06:19.859Z,6.53
2019-03-16T04:08:40.450Z,11.43
2019-03-16T04:11:00.964Z,9.80
2019-03-16T04:13:21.507Z,10.78
2019-03-16T04:15:42.199Z,10.38
2019-03-16T04:18:02.829Z,11.93
2019-03-16T04:20:23.430Z,8.85
2019-03-16T04:22:43.931Z,8.73
2019-03-16T04:25:04.602Z,10.60
2019-03-16T04:27:25.181Z,10.25
2019-03-16T04:29:45.906Z,11.53
2019-03-16T04:32:06.415Z,11.55
2019-03-16T04:34:29.668Z,10.23
2019-03-16T04:36:49.205Z,9.13
2019-03-16T04:39:09.849Z,11.03
2019-03-16T04:41:30.397Z,14.00
2019-03-16T04:43:50.964Z,14.07
2019-03-16T04:46:11.458Z,9.30
2019-03-16T04:48:38.164Z,9.85
2019-03-16T04:50:58.691Z,11.90
2019-03-16T04:53:19.336Z,15.08
2019-03-16T04:55:39.905Z,13.50
2019-03-16T04:58:00.432Z,10.82
2019-03-16T05:00:21.014Z,10.85
2019-03-16T05:02:41.583Z,15.35
2019-03-16T05:05:03.269Z,14.80
2019-03-16T05:07:23.789Z,12.90
2019-03-16T05:09:44.227Z,11.53
2019-03-16T05:12:12.471Z,9.48
2019-03-16T05:14:32.908Z,9.20
2019-03-16T05:16:53.408Z,8.35
2019-03-16T05:19:13.939Z,6.97
2019-03-16T05:21:34.449Z,7.90
2019-03-16T05:23:54.887Z,8.63
2019-03-16T05:26:15.485Z,8.20
2019-03-16T05:28:35.926Z,9.35
2019-03-16T05:30:56.561Z,7.97
2019-03-16T05:33:29.722Z,7.45
2019-03-16T05:35:50.156Z,7.97
2019-03-16T05:38:10.693Z,9.33
2019-03-16T05:40:31.264Z,6.53
2019-03-16T05:42:51.839Z,7.67
2019-03-16T05:45:12.794Z,6.37
2019-03-16T05:47:33.552Z,6.53
2019-03-16T05:49:54.194Z,8.50
2019-03-16T05:52:14.822Z,6.47
2019-03-16T05:54:35.494Z,4.80
2019-03-16T05:56:56.116Z,7.62
2019-03-16T05:59:16.663Z,9.05
2019-03-16T06:01:38.317Z,7.28
2019-03-16T06:03:58.956Z,8.28
2019-03-16T06:06:19.550Z,7.87
2019-03-16T06:08:40.167Z,8.38
2019-03-16T06:11:00.756Z,6.75
2019-03-16T06:13:21.475Z,9.15
2019-03-16T06:15:42.162Z,10.85
2019-03-16T06:18:02.765Z,6.33
2019-03-16T06:20:23.324Z,10.08
2019-03-16T06:22:43.845Z,8.30
2019-03-16T06:25:05.725Z,7.85
2019-03-16T06:27:26.460Z,10.40
2019-03-16T06:29:47.008Z,9.03
2019-03-16T06:32:07.575Z,6.90
2019-03-16T06:34:28.089Z,8.20
2019-03-16T06:36:48.720Z,8.10
2019-03-16T06:39:09.399Z,7.17
2019-03-16T06:41:29.935Z,12.88
2019-03-16T06:43:50.550Z,10.38
2019-03-16T06:46:11.083Z,6.30
2019-03-16T06:48:31.612Z,6.67
2019-03-16T06:50:52.164Z,9.30
2019-03-16T06:53:12.899Z,5.87
2019-03-16T06:55:33.464Z,9.25
2019-03-16T06:57:54.068Z,5.85
2019-03-16T07:00:25.305Z,6.47
2019-03-16T07:02:47.019Z,11.28
2019-03-16T07:05:10.402Z,8.28
2019-03-16T07:07:30.957Z,7.05
2019-03-16T07:09:51.539Z,8.23
2019-03-16T07:12:12.136Z,6.25
2019-03-16T07:14:32.779Z,7.08
2019-03-16T07:17:02.174Z,11.75
2019-03-16T07:19:15.815Z,9.70
2019-03-16T07:21:36.323Z,10.53
2019-03-16T07:23:56.871Z,10.78
2019-03-16T07:26:17.443Z,7.00
2019-03-16T07:28:38.099Z,10.60
2019-03-16T07:30:58.654Z,7.87
2019-03-16T07:33:19.184Z,9.73
2019-03-16T07:35:39.748Z,7.33
2019-03-16T07:38:00.175Z,7.08
2019-03-16T07:40:20.800Z,9.03
2019-03-16T07:42:41.444Z,8.58
2019-03-16T07:45:08.251Z,8.43
2019-03-16T07:47:24.319Z,8.60
2019-03-16T07:49:44.832Z,7.22
2019-03-16T07:52:05.473Z,12.55
2019-03-16T07:54:26.025Z,10.28
2019-03-16T07:56:49.312Z,7.72
2019-03-16T07:59:09.517Z,7.63
2019-03-16T08:01:30.026Z,9.30
2019-03-16T08:03:51.517Z,11.65
2019-03-16T08:06:12.082Z,12.10
2019-03-16T08:08:32.706Z,14.33
2019-03-16T08:10:53.354Z,17.60
2019-03-16T08:13:13.949Z,13.20
2019-03-16T08:15:35.848Z,19.95
2019-03-16T08:17:56.470Z,10.45
2019-03-16T08:20:16.911Z,9.35
2019-03-16T08:22:37.473Z,7.67
2019-03-16T08:24:58.087Z,18.02
2019-03-16T08:27:18.877Z,7.62
2019-03-16T08:29:39.412Z,8.85
2019-03-16T08:32:00.023Z,9.25
2019-03-16T08:34:20.690Z,6.45
2019-03-16T08:36:41.218Z,8.43
2019-03-16T08:39:01.755Z,10.32
2019-03-16T08:41:24.181Z,6.47
2019-03-16T08:43:44.742Z,6.75
2019-03-16T08:46:05.275Z,8.55
2019-03-16T08:48:25.832Z,11.25
2019-03-16T08:50:46.467Z,12.78
2019-03-16T08:53:07.098Z,5.70
2019-03-16T08:55:27.414Z,7.93
2019-03-16T08:57:48.045Z,6.97
2019-03-16T09:00:12.829Z,9.60
2019-03-16T09:02:33.362Z,7.42
2019-03-16T09:04:53.897Z,8.95
2019-03-16T09:07:15.564Z,9.83
2019-03-16T09:09:36.179Z,7.30
2019-03-16T09:11:58.224Z,7.58
2019-03-16T09:14:19.026Z,5.47
2019-03-16T09:16:39.711Z,8.80
2019-03-16T09:19:00.305Z,5.67
2019-03-16T09:21:20.854Z,8.58
2019-03-16T09:23:41.405Z,4.67
2019-03-16T09:26:02.102Z,6.03
2019-03-16T09:28:22.655Z,7.42
2019-03-16T09:30:43.302Z,5.92
2019-03-16T09:33:03.869Z,4.85
2019-03-16T09:35:24.433Z,4.55
2019-03-16T09:37:44.988Z,6.22
2019-03-16T09:40:07.983Z,6.37
2019-03-16T09:42:28.169Z,4.37
2019-03-16T09:44:48.842Z,6.37
2019-03-16T09:47:09.526Z,5.45
2019-03-16T09:49:30.213Z,5.87
2019-03-16T09:51:50.779Z,3.15
2019-03-16T09:54:10.838Z,3.90
2019-03-16T09:56:31.613Z,8.15
2019-03-16T09:58:52.179Z,8.95
2019-03-16T10:01:15.337Z,3.70
2019-03-16T10:03:34.968Z,2.85
2019-03-16T10:05:55.444Z,3.58
2019-03-16T10:08:20.669Z,3.10
2019-03-16T10:10:41.219Z,6.05
2019-03-16T10:13:01.876Z,2.58
2019-03-16T10:15:22.335Z,4.50
2019-03-16T10:17:42.952Z,6.33
2019-03-16T10:20:04.965Z,3.05
2019-03-16T10:22:25.476Z,3.45
2019-03-16T10:24:45.997Z,3.08
2019-03-16T10:27:08.190Z,5.12
2019-03-16T10:29:28.885Z,3.37
2019-03-16T10:31:49.412Z,3.15
2019-03-16T10:34:09.862Z,7.58
2019-03-16T10:36:30.494Z,3.55
2019-03-16T10:38:52.615Z,4.60
2019-03-16T10:41:13.099Z,3.67
2019-03-16T10:43:33.864Z,2.33
2019-03-16T10:45:54.511Z,4.22
2019-03-16T10:48:15.069Z,3.83
2019-03-16T10:50:35.551Z,5.12
2019-03-16T10:52:56.480Z,2.65
2019-03-16T10:55:42.029Z,4.75
2019-03-16T10:57:57.369Z,4.45
2019-03-16T11:00:18.251Z,3.80
2019-03-16T11:02:38.887Z,11.45
2019-03-16T11:05:06.333Z,3.62
2019-03-16T11:07:26.986Z,5.03
2019-03-16T11:09:47.513Z,5.37
2019-03-16T11:12:07.782Z,4.23
2019-03-16T11:14:27.776Z,7.47
2019-03-16T11:16:47.978Z,7.30
2019-03-16T11:19:08.662Z,3.47
2019-03-16T11:21:29.130Z,2.60
2019-03-16T11:23:49.657Z,3.90
2019-03-16T11:26:10.303Z,3.15
2019-03-16T11:28:30.342Z,3.42
2019-03-16T11:30:50.276Z,5.20
2019-03-16T11:33:10.777Z,4.95
2019-03-16T11:35:31.458Z,2.77
2019-03-16T11:37:51.418Z,2.95
2019-03-16T11:40:19.593Z,4.12
2019-03-16T11:42:40.133Z,5.70
2019-03-16T11:45:00.353Z,5.92
2019-03-16T11:47:20.854Z,3.40
2019-03-16T11:49:41.400Z,4.25
2019-03-16T11:52:01.298Z,3.55
2019-03-16T11:54:21.737Z,5.70
2019-03-16T11:56:41.684Z,4.08
2019-03-16T11:59:01.630Z,5.12
2019-03-16T12:01:24.085Z,2.58
2019-03-16T12:03:44.310Z,1.53
2019-03-16T12:06:04.621Z,4.10
2019-03-16T12:08:24.815Z,6.67
2019-03-16T12:10:45.201Z,5.37
2019-03-16T12:13:16.718Z,2.30
2019-03-16T12:15:27.574Z,3.37
2019-03-16T12:17:47.802Z,3.50
2019-03-16T12:20:12.614Z,3.77
2019-03-16T12:22:33.008Z,3.17
2019-03-16T12:24:53.436Z,3.00
2019-03-16T12:27:13.668Z,3.87
2019-03-16T12:29:34.508Z,3.83
2019-03-16T12:31:54.871Z,4.27
2019-03-16T12:34:15.170Z,2.67
2019-03-16T12:36:35.470Z,4.70
2019-03-16T12:38:56.657Z,4.57
2019-03-16T12:41:29.457Z,4.23
2019-03-16T12:43:49.765Z,6.15
2019-03-16T12:46:09.671Z,3.60
2019-03-16T12:48:29.630Z,4.12
2019-03-16T12:50:49.598Z,4.10
2019-03-16T12:53:09.568Z,2.77
2019-03-16T12:55:29.623Z,5.85
2019-03-16T12:57:49.891Z,3.37
2019-03-16T13:00:19.996Z,2.77
2019-03-16T13:02:40.371Z,3.27
2019-03-16T13:05:00.746Z,3.00
2019-03-16T13:07:21.014Z,2.97
2019-03-16T13:09:42.521Z,2.70
2019-03-16T13:12:02.939Z,2.30
2019-03-16T13:14:23.236Z,3.50
2019-03-16T13:16:43.591Z,2.43
2019-03-16T13:19:03.851Z,4.53
2019-03-16T13:21:24.093Z,4.17
2019-03-16T13:23:45.934Z,3.90
2019-03-16T13:26:06.233Z,2.10
2019-03-16T13:28:26.460Z,3.73
2019-03-16T13:30:46.740Z,5.20
2019-03-16T13:33:06.960Z,2.77
2019-03-16T13:35:26.943Z,2.77
2019-03-16T13:37:46.911Z,2.50
2019-03-16T13:40:12.173Z,3.80
2019-03-16T13:42:32.480Z,3.77
2019-03-16T13:44:52.718Z,3.83
2019-03-16T13:47:13.110Z,3.83
2019-03-16T13:49:33.497Z,7.73
2019-03-16T13:51:53.756Z,3.17
2019-03-16T13:54:14.200Z,6.27
2019-03-16T13:56:34.467Z,3.87
2019-03-16T13:58:54.713Z,4.73
2019-03-16T14:01:15.233Z,3.13
2019-03-16T14:03:35.557Z,2.73
2019-03-16T14:05:56.034Z,3.83
2019-03-16T14:08:22.361Z,2.77
2019-03-16T14:10:42.667Z,4.90
2019-03-16T14:13:02.979Z,5.17
2019-03-16T14:15:23.350Z,4.00
2019-03-16T14:17:43.652Z,6.40
2019-03-16T14:20:05.513Z,3.23
2019-03-16T14:22:25.767Z,6.67
2019-03-16T14:24:46.013Z,4.97
2019-03-16T14:27:08.283Z,3.17
2019-03-16T14:29:28.690Z,7.20
2019-03-16T14:31:48.949Z,6.33
2019-03-16T14:34:09.248Z,5.53
2019-03-16T14:36:29.467Z,4.53
2019-03-16T14:38:49.783Z,4.37
2019-03-16T14:41:09.961Z,4.23
2019-03-16T14:43:30.226Z,6.40
2019-03-16T14:45:50.513Z,6.73
2019-03-16T14:48:10.971Z,5.03
2019-03-16T14:50:31.194Z,6.53
2019-03-16T14:52:52.593Z,6.67
2019-03-16T14:55:12.879Z,6.97
2019-03-16T14:57:35.848Z,7.50
2019-03-16T14:59:56.096Z,7.62
2019-03-16T15:02:18.053Z,14.68
2019-03-16T15:04:38.575Z,11.60
2019-03-16T15:07:03.338Z,8.33
2019-03-16T15:09:23.283Z,9.50
2019-03-16T15:11:43.614Z,7.60
2019-03-16T15:14:05.796Z,7.17
2019-03-16T15:16:38.050Z,8.03
2019-03-16T15:18:57.999Z,4.63
2019-03-16T15:21:18.253Z,6.83
2019-03-16T15:23:38.862Z,6.60
2019-03-16T15:25:59.609Z,5.10
2019-03-16T15:28:19.834Z,7.67
2019-03-16T15:30:50.040Z,6.10
2019-03-16T15:33:21.121Z,8.97
2019-03-16T15:35:41.456Z,6.00
2019-03-16T15:38:01.685Z,7.27
2019-03-16T15:40:21.926Z,8.33
2019-03-16T15:42:42.581Z,6.20
2019-03-16T15:45:02.824Z,9.93
2019-03-16T15:47:23.976Z,4.77
2019-03-16T15:49:44.298Z,10.23
2019-03-16T15:52:04.588Z,9.93
2019-03-16T15:54:24.756Z,6.63
2019-03-16T15:56:45.023Z,7.00
2019-03-16T15:59:05.413Z,8.50
2019-03-16T16:01:25.805Z,8.67
2019-03-16T16:03:46.301Z,8.03
2019-03-16T16:06:06.684Z,5.70
2019-03-16T16:08:26.937Z,6.80
2019-03-16T16:11:00.371Z,5.97
2019-03-16T16:13:10.224Z,9.27
2019-03-16T16:15:30.943Z,6.87
2019-03-16T16:17:51.292Z,9.87
2019-03-16T16:20:14.426Z,6.37
2019-03-16T16:22:34.726Z,6.78
2019-03-16T16:24:54.907Z,7.80
2019-03-16T16:27:15.205Z,8.27
2019-03-16T16:29:35.459Z,7.13
2019-03-16T16:31:55.748Z,7.70
2019-03-16T16:34:16.522Z,11.30
2019-03-16T16:36:39.203Z,6.97
2019-03-16T16:38:59.420Z,7.75
2019-03-16T16:41:19.735Z,6.50
2019-03-16T16:43:39.913Z,6.53
2019-03-16T16:46:00.540Z,10.65
2019-03-16T16:48:21.105Z,8.08
2019-03-16T16:50:41.774Z,9.45
2019-03-16T16:53:01.676Z,8.15
2019-03-16T16:55:22.315Z,7.80
2019-03-16T16:57:42.461Z,6.93
2019-03-16T17:00:12.652Z,11.18
2019-03-16T17:02:34.771Z,12.00
2019-03-16T17:04:55.222Z,11.70
2019-03-16T17:07:15.350Z,9.40
2019-03-16T17:09:36.249Z,11.10
2019-03-16T17:11:56.790Z,9.40
2019-03-16T17:14:22.925Z,7.75
2019-03-16T17:16:43.875Z,9.58
2019-03-16T17:19:04.637Z,23.73
2019-03-16T17:21:24.679Z,14.10
2019-03-16T17:23:45.303Z,13.65
2019-03-16T17:26:07.366Z,8.73
2019-03-16T17:28:28.069Z,10.43
2019-03-16T17:30:48.798Z,14.58
2019-03-16T17:33:09.537Z,14.15
2019-03-16T17:35:30.174Z,12.40
2019-03-16T17:38:10.221Z,13.50
2019-03-16T17:40:31.108Z,13.10
2019-03-16T17:42:51.637Z,14.93
2019-03-16T17:45:15.832Z,21.57
2019-03-16T17:47:36.898Z,16.97
2019-03-16T17:49:57.455Z,16.32
2019-03-16T17:52:18.156Z,14.60
2019-03-16T17:54:38.683Z,35.10
2019-03-16T17:56:59.291Z,17.12
2019-03-16T17:59:19.881Z,20.70
2019-03-16T18:01:40.385Z,11.68
2019-03-16T18:04:00.865Z,15.08
2019-03-16T18:06:22.587Z,15.43
2019-03-16T18:08:43.162Z,15.00
2019-03-16T18:11:03.869Z,17.45
2019-03-16T18:13:24.458Z,17.90
2019-03-16T18:15:45.089Z,14.60
2019-03-16T18:18:05.785Z,11.88
2019-03-16T18:20:27.320Z,13.72
2019-03-16T18:22:48.298Z,15.83
2019-03-16T18:25:10.998Z,17.65
2019-03-16T18:27:31.326Z,12.95
2019-03-16T18:29:52.041Z,17.23
2019-03-16T18:32:12.564Z,14.20
2019-03-16T18:34:33.043Z,13.45
2019-03-16T18:36:53.512Z,14.13
2019-03-16T18:39:14.032Z,21.75
2019-03-16T18:41:36.520Z,21.10
2019-03-16T18:43:56.708Z,18.32
2019-03-16T18:46:17.238Z,21.10
2019-03-16T18:48:37.826Z,23.47
2019-03-16T18:51:01.131Z,24.32
2019-03-16T18:55:42.984Z,29.65
2019-03-16T18:58:03.620Z,21.20
2019-03-16T19:00:24.271Z,20.48
2019-03-16T19:02:45.021Z,22.52
2019-03-16T19:05:07.915Z,25.23
2019-03-16T19:07:28.308Z,11.68
2019-03-16T19:09:48.773Z,21.87
2019-03-16T19:12:09.404Z,22.77
2019-03-16T19:14:29.959Z,17.80
2019-03-16T19:16:50.512Z,22.67
2019-03-16T19:19:11.083Z,21.85
2019-03-16T19:21:31.723Z,26.62
2019-03-16T19:23:53.976Z,14.50
2019-03-16T19:26:14.680Z,27.95
2019-03-16T19:28:35.326Z,23.47
2019-03-16T19:30:57.190Z,22.93
2019-03-16T19:33:17.789Z,25.75
2019-03-16T19:35:38.382Z,31.82
2019-03-16T19:37:58.909Z,32.35
2019-03-16T19:40:21.895Z,24.65
2019-03-16T19:42:42.243Z,27.10
2019-03-16T19:45:02.792Z,29.20
2019-03-16T19:47:23.309Z,23.73
2019-03-16T19:49:43.787Z,26.65
2019-03-16T19:52:06.357Z,24.50
2019-03-16T19:54:28.810Z,22.87
2019-03-16T19:56:53.199Z,29.87
2019-03-16T19:59:13.728Z,25.43
2019-03-16T20:01:37.336Z,28.05
2019-03-16T20:04:03.028Z,24.67
2019-03-16T20:06:25.956Z,30.68
2019-03-16T20:08:45.884Z,26.20
2019-03-16T20:11:07.326Z,19.82
2019-03-16T20:13:28.055Z,25.92
2019-03-16T20:15:49.753Z,24.18
2019-03-16T20:18:10.362Z,25.08
2019-03-16T20:20:37.209Z,24.72
2019-03-16T20:22:57.747Z,24.05
2019-03-16T20:25:18.193Z,24.60
2019-03-16T20:27:39.090Z,21.15
2019-03-16T20:29:59.717Z,23.73
2019-03-16T20:32:20.167Z,27.35
2019-03-16T20:34:40.932Z,20.35
2019-03-16T20:37:01.623Z,20.92
2019-03-16T20:39:22.220Z,21.75
2019-03-16T20:41:42.751Z,36.53
2019-03-16T20:44:03.596Z,74.10
2019-03-16T20:46:25.582Z,27.73
2019-03-16T20:48:49.265Z,20.10
2019-03-16T20:51:11.638Z,19.30
2019-03-16T20:53:33.351Z,19.20
2019-03-16T20:55:53.813Z,24.27
2019-03-16T20:58:15.580Z,18.45
2019-03-16T21:00:36.627Z,24.67
2019-03-16T21:02:57.285Z,24.27
2019-03-16T21:05:17.879Z,23.42
2019-03-16T21:07:38.509Z,20.10
2019-03-16T21:09:59.066Z,23.12
2019-03-16T21:12:20.614Z,22.58
2019-03-16T21:14:41.227Z,20.88
2019-03-16T21:17:01.921Z,23.30
2019-03-16T21:19:22.660Z,18.80
2019-03-16T21:21:43.317Z,20.12
2019-03-16T21:24:03.882Z,20.20
2019-03-16T21:26:25.171Z,21.68
2019-03-16T21:28:45.983Z,23.05
2019-03-16T21:31:06.788Z,18.87
2019-03-16T21:33:29.824Z,22.13
2019-03-16T21:35:49.576Z,20.48
2019-03-16T21:38:10.279Z,18.67
2019-03-16T21:40:33.308Z,21.65
2019-03-16T21:43:02.671Z,18.48
2019-03-16T21:45:23.310Z,26.05
2019-03-16T21:47:45.449Z,17.73
2019-03-16T21:50:11.161Z,25.55
2019-03-16T21:52:31.774Z,20.12
2019-03-16T21:54:53.895Z,19.80
2019-03-16T21:57:14.602Z,18.37
2019-03-16T21:59:35.371Z,21.23
2019-03-16T22:01:56.683Z,15.58
2019-03-16T22:04:17.547Z,19.20
2019-03-16T22:06:40.668Z,26.50
2019-03-16T22:11:21.617Z,22.35
2019-03-16T22:13:46.186Z,16.77
2019-03-16T22:16:08.245Z,21.10
2019-03-16T22:18:29.326Z,19.12
2019-03-16T22:20:50.801Z,18.90
2019-03-16T22:23:12.429Z,16.65
2019-03-16T22:25:33.113Z,19.17
2019-03-16T22:27:53.841Z,20.95
2019-03-16T22:30:20.841Z,21.05
2019-03-16T22:32:41.422Z,19.02
2019-03-16T22:35:01.953Z,17.80
2019-03-16T22:37:22.566Z,19.87
2019-03-16T22:39:43.063Z,20.00
2019-03-16T22:42:03.745Z,18.37
2019-03-16T22:44:24.393Z,15.70
2019-03-16T22:46:45.088Z,19.25
2019-03-16T22:49:26.430Z,18.25
2019-03-16T22:51:48.861Z,18.85
2019-03-16T22:54:09.113Z,15.43
2019-03-16T22:56:29.993Z,21.15
2019-03-16T22:58:53.358Z,18.42
2019-03-16T23:01:14.163Z,18.17
2019-03-16T23:03:34.858Z,20.85
2019-03-16T23:05:55.425Z,19.57
2019-03-16T23:08:15.985Z,19.45
2019-03-16T23:10:36.695Z,20.95
2019-03-16T23:12:57.269Z,18.35
2019-03-16T23:15:17.923Z,19.15
2019-03-16T23:17:41.248Z,23.12
2019-03-16T23:20:01.933Z,24.47
2019-03-16T23:22:26.222Z,22.42
2019-03-16T23:27:05.711Z,20.05
2019-03-16T23:29:26.259Z,18.65
2019-03-16T23:31:48.340Z,21.07
2019-03-16T23:34:18.692Z,20.80
2019-03-16T23:36:30.685Z,21.67
2019-03-16T23:38:51.215Z,26.20
2019-03-16T23:41:11.851Z,21.77
2019-03-16T23:43:32.322Z,23.80
2019-03-16T23:45:52.841Z,24.30
2019-03-16T23:48:13.578Z,26.20
2019-03-16T23:50:34.116Z,22.13
2019-03-16T23:52:54.658Z,22.13
2019-03-16T23:55:15.303Z,22.75
2019-03-16T23:57:36.045Z,23.22
2019-03-16T23:59:56.743Z,25.08
